Terminal Aerodrome Forecast
Issued by NWS

Home | Current Version | Previous Version | Text Only | Print | Product List | Glossary On
Versions: 1 2 3 4 5 6 7 8 9 10 11 12 13
244
FTUS46 KSGX 290551
TAFONT
TAF
KONT 290551Z 2906/3012 VRB04KT P6SM SKC
     FM291000 VRB04KT 5SM BR BKN008
     FM291500 VRB04KT 6SM HZ SCT010
     FM292100 26012G18KT P6SM SKC
     FM300400 VRB04KT P6SM SKC
     FM301000 VRB04KT 5SM BR BKN008=

USA.gov is the U.S. government's official web portal to all federal, state and local government web resources and services.